Terminal Aerodrome Forecast
Issued by NWS

Home | Current Version | Previous Version | Text Only | Print | Product List | Glossary Off
Versions: 1 2 3 4 5 6 7 8 9 10 11 12 13 14 15 16 17 18 19

000
FTUS43 KMPX 300941 AAA
TAFRNH
TAF AMD
KRNH 300941Z 3010/3106 VRB02KT 1/2SM FG VV005
      TEMPO 3010/3012 2SM BR SCT005
     FM301200 19003KT P6SM SCT250
     FM301800 19009KT P6SM SCT120 BKN250=

USA.gov is the U.S. government's official web portal to all federal, state and local government web resources and services.